Time;durP1;ratioP1;P1;durP2;ratioP2;P2;SDS_P1;SDS_P2;PMS_P1;PMS_P2;Temp;Humidity;BMP_temperature;BMP_pressure;BME280_temperature;BME280_humidity;BME280_pressure;Samples;Min_cycle;Max_cycle;Signal;HPM_P1;HPM_P2
2022/03/18 00:02:13;;;;;;;8.13;3.40;;;9.80;99.90;;;;;;5076146;28;20501;-78
2022/03/18 00:04:39;;;;;;;7.60;4.35;;;9.80;99.90;;;;;;5080773;28;20027;-78
2022/03/18 00:07:05;;;;;;;8.27;4.20;;;9.70;99.90;;;;;;5083886;28;20044;-78
2022/03/18 00:09:31;;;;;;;6.93;4.13;;;9.70;99.90;;;;;;5073698;28;20024;-78
2022/03/18 00:11:57;;;;;;;6.85;3.92;;;9.70;99.90;;;;;;5075965;28;20029;-79
2022/03/18 00:14:23;;;;;;;6.05;3.90;;;9.70;99.90;;;;;;5074797;28;20413;-78
2022/03/18 00:16:49;;;;;;;6.03;3.90;;;9.70;99.90;;;;;;5073375;28;20013;-78
2022/03/18 00:19:15;;;;;;;7.05;4.07;;;9.70;99.90;;;;;;5079739;28;20033;-78
2022/03/18 00:21:41;;;;;;;5.05;3.60;;;9.70;99.90;;;;;;5082481;28;20025;-78
2022/03/18 00:24:07;;;;;;;5.43;3.78;;;9.70;99.90;;;;;;5078718;28;20038;-78
2022/03/18 00:26:33;;;;;;;4.68;3.90;;;9.60;99.90;;;;;;5077591;28;20024;-78
2022/03/18 00:28:59;;;;;;;5.78;4.47;;;9.70;99.90;;;;;;5070208;28;20463;-78
2022/03/18 00:31:25;;;;;;;7.75;4.72;;;9.70;99.90;;;;;;5074812;28;20029;-78
2022/03/18 00:33:51;;;;;;;6.15;4.53;;;9.60;99.90;;;;;;5085406;28;20032;-78
2022/03/18 00:36:17;;;;;;;7.28;4.90;;;9.60;99.90;;;;;;5082795;28;20056;-78
2022/03/18 00:38:43;;;;;;;6.10;4.20;;;9.60;99.90;;;;;;5083771;28;20517;-78
2022/03/18 00:41:09;;;;;;;7.13;4.30;;;9.60;99.90;;;;;;5085962;28;20068;-78
2022/03/18 00:43:35;;;;;;;5.63;3.67;;;9.60;99.90;;;;;;5087073;28;20051;-78
2022/03/18 00:46:00;;;;;;;7.07;4.57;;;9.60;99.90;;;;;;5082431;28;20482;-78
2022/03/18 00:53:54;;;;;;;4.18;3.78;;;9.60;99.90;;;;;;5081618;28;20059;-78
2022/03/18 00:56:20;;;;;;;5.88;3.80;;;9.60;99.90;;;;;;5076621;28;20032;-78
2022/03/18 00:58:46;;;;;;;7.47;4.88;;;9.60;99.90;;;;;;5079414;28;20027;-78
2022/03/18 01:01:12;;;;;;;5.63;4.00;;;9.60;99.90;;;;;;5086758;28;20032;-78
2022/03/18 01:03:38;;;;;;;5.88;4.32;;;9.60;99.90;;;;;;5085468;28;20525;-78
2022/03/18 01:06:04;;;;;;;5.60;4.03;;;9.60;99.90;;;;;;5082012;28;20028;-78
2022/03/18 01:08:30;;;;;;;4.57;4.05;;;9.60;99.90;;;;;;5084637;28;20102;-78
2022/03/18 01:10:56;;;;;;;6.97;4.10;;;9.60;99.90;;;;;;5074421;28;20089;-79
2022/03/18 01:13:22;;;;;;;7.70;4.38;;;9.50;99.90;;;;;;5079970;28;20016;-78
2022/03/18 01:15:48;;;;;;;6.25;4.53;;;9.50;99.90;;;;;;5082084;28;20029;-78
2022/03/18 01:18:14;;;;;;;7.07;4.15;;;9.50;99.90;;;;;;5084330;28;20020;-78
2022/03/18 01:20:40;;;;;;;10.50;5.10;;;9.40;99.90;;;;;;5080342;28;20477;-79
2022/03/18 01:23:06;;;;;;;6.45;4.53;;;9.40;99.90;;;;;;5078570;28;20551;-79
2022/03/18 01:25:35;;;;;;;6.78;4.30;;;9.40;99.90;;;;;;5085078;28;20032;-78
2022/03/18 01:28:06;;;;;;;6.40;4.25;;;9.50;99.90;;;;;;5076491;28;20052;-79
2022/03/18 01:30:32;;;;;;;7.47;4.00;;;9.40;99.90;;;;;;5075748;28;20059;-78
2022/03/18 01:33:01;;;;;;;7.07;4.15;;;9.50;99.90;;;;;;5079765;28;20032;-78
2022/03/18 01:35:28;;;;;;;6.40;4.03;;;9.40;99.90;;;;;;5088833;28;20107;-79
2022/03/18 01:37:54;;;;;;;6.07;4.43;;;9.40;99.90;;;;;;5078763;28;20012;-78
2022/03/18 01:40:20;;;;;;;6.07;4.38;;;9.40;99.90;;;;;;5090333;28;20051;-78
2022/03/18 01:42:45;;;;;;;6.07;4.80;;;9.30;99.90;;;;;;5082712;28;20493;-78
2022/03/18 01:45:11;;;;;;;6.28;4.07;;;9.30;99.90;;;;;;5083962;28;20544;-78
2022/03/18 01:47:42;;;;;;;7.07;4.72;;;9.30;99.90;;;;;;5081764;28;20081;-78
2022/03/18 01:50:13;;;;;;;4.55;4.13;;;9.30;99.90;;;;;;5075993;28;20032;-78
2022/03/18 01:52:40;;;;;;;7.30;4.82;;;9.30;99.90;;;;;;5076787;28;20068;-79
2022/03/18 01:55:06;;;;;;;5.13;3.95;;;9.30;99.90;;;;;;5072143;28;20032;-78
2022/03/18 01:57:32;;;;;;;8.30;4.35;;;9.30;99.90;;;;;;5084097;28;20020;-79
2022/03/18 01:59:58;;;;;;;7.22;4.10;;;9.30;99.90;;;;;;5081163;28;20501;-78
2022/03/18 02:02:24;;;;;;;5.95;4.32;;;9.30;99.90;;;;;;5079968;28;20029;-78
2022/03/18 02:04:50;;;;;;;5.45;3.97;;;9.30;99.90;;;;;;5083041;28;20029;-79
2022/03/18 02:07:17;;;;;;;5.93;4.50;;;9.30;99.90;;;;;;5076228;28;20111;-78
2022/03/18 02:09:44;;;;;;;4.70;3.92;;;9.30;99.90;;;;;;5078185;28;20036;-78
2022/03/18 02:12:11;;;;;;;5.18;3.78;;;9.30;99.90;;;;;;5070849;28;20028;-78
2022/03/18 02:14:42;;;;;;;9.38;4.57;;;9.30;99.90;;;;;;5079281;28;20027;-78
2022/03/18 02:17:11;;;;;;;8.27;4.47;;;9.20;99.90;;;;;;5078017;28;20081;-79
2022/03/18 02:19:37;;;;;;;7.05;4.07;;;9.30;99.90;;;;;;5080644;28;20033;-79
2022/03/18 02:22:10;;;;;;;6.03;4.00;;;9.20;99.90;;;;;;5083582;28;20093;-79
2022/03/18 02:24:38;;;;;;;8.55;4.32;;;9.20;99.90;;;;;;5085193;28;20039;-79
2022/03/18 02:27:03;;;;;;;5.45;4.13;;;9.20;99.90;;;;;;5078534;28;20028;-78
2022/03/18 02:29:29;;;;;;;7.68;5.13;;;9.20;99.90;;;;;;5077645;28;20107;-78
2022/03/18 02:31:55;;;;;;;7.25;5.28;;;9.20;99.90;;;;;;5074179;28;20107;-78
2022/03/18 02:34:23;;;;;;;7.35;4.68;;;9.10;99.90;;;;;;5091793;28;20032;-78
2022/03/18 02:36:49;;;;;;;5.53;4.32;;;9.10;99.90;;;;;;5085768;28;20103;-78
2022/03/18 02:39:15;;;;;;;8.98;4.85;;;9.10;99.90;;;;;;5081831;28;20028;-78
2022/03/18 02:41:41;;;;;;;7.45;4.25;;;9.10;99.90;;;;;;5087981;28;20680;-78
2022/03/18 02:44:07;;;;;;;10.32;5.00;;;9.20;99.90;;;;;;5081085;28;20093;-78
2022/03/18 02:46:33;;;;;;;6.40;4.82;;;9.20;99.90;;;;;;5071209;28;20075;-78
2022/03/18 02:49:03;;;;;;;8.18;4.97;;;9.10;99.90;;;;;;5077384;28;20036;-79
2022/03/18 02:51:29;;;;;;;6.72;4.55;;;9.10;99.90;;;;;;5078908;28;20078;-78
2022/03/18 02:53:56;;;;;;;6.20;4.57;;;9.10;99.90;;;;;;5080596;28;20038;-78
2022/03/18 02:56:22;;;;;;;6.30;4.40;;;9.10;99.90;;;;;;5076264;28;20023;-79
2022/03/18 02:58:47;;;;;;;5.85;4.30;;;9.20;99.90;;;;;;5079595;28;20398;-78
2022/03/18 03:01:13;;;;;;;6.18;4.32;;;9.20;99.90;;;;;;5084511;28;20054;-78
2022/03/18 03:03:39;;;;;;;4.93;3.72;;;9.20;99.90;;;;;;5086192;28;20476;-78
2022/03/18 03:08:49;;;;;;;6.13;4.30;;;9.10;99.90;;;;;;5078143;28;20131;-78
2022/03/18 03:11:15;;;;;;;5.30;4.60;;;9.00;99.90;;;;;;5076950;28;20103;-78
2022/03/18 03:13:40;;;;;;;6.85;4.78;;;9.00;99.90;;;;;;5077120;28;20486;-78
2022/03/18 03:16:08;;;;;;;5.78;4.75;;;9.10;99.90;;;;;;5082073;28;20489;-78
2022/03/18 03:18:34;;;;;;;8.07;5.22;;;9.00;99.90;;;;;;5083278;28;20024;-79
2022/03/18 03:21:00;;;;;;;6.85;4.15;;;9.10;99.90;;;;;;5070101;28;20033;-78
2022/03/18 03:23:25;;;;;;;9.82;5.10;;;9.10;99.90;;;;;;5075139;28;20145;-78
2022/03/18 03:25:55;;;;;;;7.35;4.88;;;9.00;99.90;;;;;;5071307;28;20017;-78
2022/03/18 03:28:21;;;;;;;5.43;4.53;;;9.00;99.90;;;;;;5076231;28;20030;-78
2022/03/18 03:30:48;;;;;;;5.97;4.43;;;9.00;99.90;;;;;;5078859;28;20088;-78
2022/03/18 03:33:14;;;;;;;6.25;4.82;;;9.00;99.90;;;;;;5080886;28;20028;-79
2022/03/18 03:35:40;;;;;;;5.43;4.50;;;9.00;99.90;;;;;;5081839;28;20398;-78
2022/03/18 03:38:06;;;;;;;7.05;5.00;;;9.00;99.90;;;;;;5082292;28;20101;-78
2022/03/18 03:40:33;;;;;;;5.90;4.65;;;9.00;99.90;;;;;;5086447;28;20020;-78
2022/03/18 03:42:59;;;;;;;9.93;4.80;;;9.00;99.90;;;;;;5080220;28;20405;-78
2022/03/18 03:45:24;;;;;;;6.18;4.75;;;9.00;99.90;;;;;;5075012;28;20493;-79
2022/03/18 03:47:51;;;;;;;7.35;4.75;;;9.00;99.90;;;;;;5076811;28;20020;-78
2022/03/18 03:50:17;;;;;;;8.15;4.97;;;9.00;99.90;;;;;;5077020;28;20020;-79
2022/03/18 03:52:43;;;;;;;7.15;5.25;;;9.00;99.90;;;;;;5075228;28;20089;-78
2022/03/18 03:55:11;;;;;;;8.52;5.47;;;9.00;99.90;;;;;;5079441;28;20064;-79
2022/03/18 03:57:38;;;;;;;6.45;4.63;;;9.00;99.90;;;;;;5082410;28;20049;-79
2022/03/18 04:00:05;;;;;;;6.85;4.53;;;9.00;99.90;;;;;;5077895;28;20119;-78
2022/03/18 04:02:31;;;;;;;7.75;4.70;;;9.00;99.90;;;;;;5078558;28;20155;-78
2022/03/18 04:04:57;;;;;;;4.93;4.28;;;9.00;99.90;;;;;;5078540;28;20095;-78
2022/03/18 04:07:25;;;;;;;9.02;4.50;;;9.00;99.90;;;;;;5074788;28;20513;-78
2022/03/18 04:09:53;;;;;;;5.88;5.15;;;9.00;99.90;;;;;;5077662;28;20044;-79
2022/03/18 04:12:21;;;;;;;8.80;4.50;;;9.00;99.90;;;;;;5079101;28;20035;-78
2022/03/18 04:14:47;;;;;;;6.35;5.15;;;9.00;99.90;;;;;;5077808;28;20097;-78
2022/03/18 04:17:13;;;;;;;7.13;4.85;;;8.90;99.90;;;;;;5073189;28;20534;-78
2022/03/18 04:19:39;;;;;;;7.63;4.90;;;8.90;99.90;;;;;;5077468;28;20113;-79
2022/03/18 04:22:05;;;;;;;8.55;5.63;;;8.90;99.90;;;;;;5086397;28;20056;-78
2022/03/18 04:24:31;;;;;;;9.50;5.20;;;8.90;99.90;;;;;;5074909;28;20032;-78
2022/03/18 04:26:57;;;;;;;6.70;5.10;;;8.90;99.90;;;;;;5076797;28;20065;-78
2022/03/18 04:29:22;;;;;;;7.20;4.72;;;9.00;99.90;;;;;;5074716;28;20031;-78
2022/03/18 04:31:49;;;;;;;7.15;4.45;;;9.00;99.90;;;;;;5086742;28;20028;-78
2022/03/18 04:34:15;;;;;;;5.95;4.43;;;9.00;99.90;;;;;;5087200;28;20070;-79
2022/03/18 04:36:40;;;;;;;8.95;4.78;;;8.90;99.90;;;;;;5086522;28;20012;-78
2022/03/18 04:39:06;;;;;;;8.18;5.43;;;9.00;99.90;;;;;;5084206;28;20095;-78
2022/03/18 04:41:32;;;;;;;6.88;4.63;;;8.90;99.90;;;;;;5077513;28;20020;-78
2022/03/18 04:43:58;;;;;;;5.70;4.32;;;8.90;99.90;;;;;;5071132;28;20556;-79
2022/03/18 04:46:23;;;;;;;7.93;5.43;;;8.90;99.90;;;;;;5075222;28;20025;-78
2022/03/18 04:48:49;;;;;;;7.18;4.72;;;8.90;99.90;;;;;;5074819;28;20066;-78
2022/03/18 04:51:15;;;;;;;6.07;4.65;;;8.90;99.90;;;;;;5084250;28;20413;-78
2022/03/18 04:53:42;;;;;;;7.97;4.80;;;8.90;99.90;;;;;;5075094;28;20415;-78
2022/03/18 04:57:15;;;;;;;6.30;5.05;;;8.90;99.90;;;;;;5076415;28;20021;-78
2022/03/18 04:58:54;;;;;;;8.32;5.55;;;8.80;99.90;;;;;;5072695;28;20017;-78
2022/03/18 05:01:20;;;;;;;11.02;6.65;;;8.90;99.90;;;;;;5071964;28;20036;-78
2022/03/18 05:03:46;;;;;;;8.85;5.68;;;8.80;99.90;;;;;;5074580;28;20013;-78
2022/03/18 05:06:12;;;;;;;7.57;5.90;;;8.80;99.90;;;;;;5075806;28;20050;-79
2022/03/18 05:08:38;;;;;;;7.85;5.55;;;8.80;99.90;;;;;;5076270;28;20346;-79
2022/03/18 05:11:03;;;;;;;8.70;5.78;;;8.80;99.90;;;;;;5074688;28;20039;-78
2022/03/18 05:13:29;;;;;;;6.68;5.32;;;8.80;99.90;;;;;;5078778;28;20481;-78
2022/03/18 05:15:56;;;;;;;8.15;5.65;;;8.80;99.90;;;;;;5082212;28;20146;-78
2022/03/18 05:18:22;;;;;;;8.02;5.38;;;8.80;99.90;;;;;;5080372;28;20088;-79
2022/03/18 05:20:48;;;;;;;6.57;5.47;;;8.80;99.90;;;;;;5072708;28;20017;-83
2022/03/18 05:23:14;;;;;;;7.28;4.78;;;8.80;99.90;;;;;;5072758;28;20031;-84
2022/03/18 05:25:40;;;;;;;6.15;5.22;;;8.80;99.90;;;;;;5071372;28;20502;-84
2022/03/18 05:28:07;;;;;;;7.85;5.15;;;8.80;99.90;;;;;;5075528;28;20486;-83
2022/03/18 05:30:33;;;;;;;9.23;6.20;;;8.80;99.90;;;;;;5081406;28;20021;-83
2022/03/18 05:32:59;;;;;;;7.43;5.00;;;8.80;99.90;;;;;;5075174;28;20426;-83
2022/03/18 05:35:25;;;;;;;6.82;5.35;;;8.80;99.90;;;;;;5087101;28;20036;-83
2022/03/18 05:37:50;;;;;;;7.85;5.40;;;8.80;99.90;;;;;;5077543;28;20507;-83
2022/03/18 05:40:18;;;;;;;8.52;5.43;;;8.80;99.90;;;;;;5085545;28;20532;-83
2022/03/18 05:42:45;;;;;;;7.53;4.72;;;8.80;99.90;;;;;;5081042;28;20013;-83
2022/03/18 05:45:11;;;;;;;7.05;5.47;;;8.80;99.90;;;;;;5079758;28;20086;-83
2022/03/18 05:47:37;;;;;;;8.32;5.63;;;8.70;99.90;;;;;;5078476;28;20024;-83
2022/03/18 05:50:05;;;;;;;7.30;5.82;;;8.70;99.90;;;;;;5082008;28;20109;-83
2022/03/18 05:52:36;;;;;;;7.38;5.40;;;8.70;99.90;;;;;;5081533;28;20116;-83
2022/03/18 05:55:02;;;;;;;6.82;5.22;;;8.70;99.90;;;;;;5076941;28;20518;-84
2022/03/18 05:57:28;;;;;;;6.90;5.25;;;8.70;99.90;;;;;;5084627;28;20027;-84
2022/03/18 05:59:56;;;;;;;9.50;5.53;;;8.60;99.90;;;;;;5077622;28;20033;-84
2022/03/18 06:02:22;;;;;;;9.77;6.10;;;8.60;99.90;;;;;;5077359;28;20508;-84
2022/03/18 06:04:48;;;;;;;8.80;5.40;;;8.60;99.90;;;;;;5074160;28;20024;-84
2022/03/18 06:07:14;;;;;;;8.13;5.50;;;8.60;99.90;;;;;;5080054;28;20080;-84
2022/03/18 06:12:25;;;;;;;6.53;5.10;;;8.60;99.90;;;;;;5076368;28;20038;-81
2022/03/18 06:14:51;;;;;;;11.13;5.32;;;8.60;99.90;;;;;;5078521;28;20024;-84
2022/03/18 06:17:17;;;;;;;9.43;6.75;;;8.60;99.90;;;;;;5080018;28;20025;-84
2022/03/18 06:19:42;;;;;;;7.25;5.40;;;8.60;99.90;;;;;;5083508;28;20489;-84
2022/03/18 06:22:08;;;;;;;7.30;4.72;;;8.60;99.90;;;;;;5070849;28;20035;-84
2022/03/18 06:24:35;;;;;;;9.35;5.90;;;8.60;99.90;;;;;;5078864;28;20027;-84
2022/03/18 06:27:01;;;;;;;7.50;5.38;;;8.60;99.90;;;;;;5081049;28;20052;-84
2022/03/18 06:29:28;;;;;;;7.60;5.60;;;8.60;99.90;;;;;;5076123;28;20497;-84
2022/03/18 06:31:54;;;;;;;10.82;5.43;;;8.60;99.90;;;;;;5078730;28;20049;-84
2022/03/18 06:34:20;;;;;;;9.27;5.07;;;8.60;99.90;;;;;;5077683;28;20052;-84
2022/03/18 06:36:46;;;;;;;10.45;6.30;;;8.50;99.90;;;;;;5085001;28;20066;-84
2022/03/18 06:39:12;;;;;;;9.25;5.82;;;8.60;99.90;;;;;;5083560;28;20532;-84
2022/03/18 06:41:39;;;;;;;11.10;5.85;;;8.60;99.90;;;;;;5081336;28;20076;-84
2022/03/18 06:44:08;;;;;;;8.43;6.07;;;8.60;99.90;;;;;;5073887;28;20154;-84
2022/03/18 06:46:37;;;;;;;8.98;5.43;;;8.60;99.90;;;;;;5072792;28;20064;-84
2022/03/18 06:49:04;;;;;;;11.18;5.60;;;8.60;99.90;;;;;;5081647;28;20039;-84
2022/03/18 06:51:30;;;;;;;8.50;5.90;;;8.60;99.90;;;;;;5081386;28;20037;-83
2022/03/18 06:53:56;;;;;;;6.80;5.95;;;8.60;99.90;;;;;;5082340;28;20035;-83
2022/03/18 06:56:22;;;;;;;9.88;6.45;;;8.50;99.90;;;;;;5074518;28;20024;-83
2022/03/18 06:58:47;;;;;;;9.68;6.38;;;8.60;99.90;;;;;;5085355;28;20073;-83
2022/03/18 07:01:13;;;;;;;10.40;6.13;;;8.50;99.90;;;;;;5084209;28;20556;-83
2022/03/18 07:03:39;;;;;;;8.70;6.88;;;8.60;99.90;;;;;;5083675;28;20030;-84
2022/03/18 07:06:06;;;;;;;9.30;5.53;;;8.60;99.90;;;;;;5073268;28;20109;-83
2022/03/18 07:08:35;;;;;;;7.70;5.78;;;8.70;99.90;;;;;;5076732;28;20020;-84
2022/03/18 07:11:02;;;;;;;8.48;6.22;;;8.70;99.90;;;;;;5072551;28;20497;-83
2022/03/18 07:13:28;;;;;;;6.82;5.85;;;8.70;99.90;;;;;;5075849;28;20563;-83
2022/03/18 07:15:53;;;;;;;7.20;5.28;;;8.80;99.90;;;;;;5081030;28;20025;-83
2022/03/18 07:18:19;;;;;;;9.02;6.15;;;8.70;99.90;;;;;;5081067;28;20512;-82
2022/03/18 07:20:45;;;;;;;10.05;5.57;;;8.70;99.90;;;;;;5078303;28;20409;-83
2022/03/18 07:23:16;;;;;;;9.23;6.03;;;8.80;99.90;;;;;;5080369;28;20027;-83
2022/03/18 07:25:43;;;;;;;8.05;5.68;;;8.80;99.90;;;;;;5071407;28;20048;-83
2022/03/18 07:28:12;;;;;;;6.00;4.60;;;8.80;99.90;;;;;;5070516;28;20029;-83
2022/03/18 07:30:39;;;;;;;7.65;5.00;;;8.90;99.90;;;;;;5074233;28;20099;-83
2022/03/18 07:33:05;;;;;;;8.00;5.65;;;8.90;99.90;;;;;;5079019;28;20036;-83
2022/03/18 07:35:32;;;;;;;8.50;6.05;;;8.80;99.90;;;;;;5085507;28;20040;-83
2022/03/18 07:37:58;;;;;;;8.43;5.68;;;8.80;99.90;;;;;;5073100;28;20074;-83
2022/03/18 07:40:24;;;;;;;7.53;5.43;;;8.90;99.90;;;;;;5083127;28;20089;-83
2022/03/18 07:42:52;;;;;;;8.18;5.40;;;8.90;99.90;;;;;;5077557;28;20021;-83
2022/03/18 07:45:20;;;;;;;7.75;5.60;;;8.90;99.90;;;;;;5078206;28;20047;-83
2022/03/18 07:47:50;;;;;;;8.38;5.75;;;8.90;99.90;;;;;;5078084;28;20051;-83
2022/03/18 07:50:20;;;;;;;5.72;4.88;;;9.00;99.90;;;;;;5081557;28;20519;-83
2022/03/18 07:52:57;;;;;;;6.75;5.30;;;9.10;99.90;;;;;;5082618;28;20526;-83
2022/03/18 07:55:25;;;;;;;7.03;5.70;;;9.00;99.90;;;;;;5082992;28;20508;-83
2022/03/18 07:57:51;;;;;;;8.00;4.60;;;9.00;99.90;;;;;;5074140;28;20017;-83
2022/03/18 08:00:17;;;;;;;6.05;4.65;;;9.10;99.90;;;;;;5076207;28;20107;-83
2022/03/18 08:02:46;;;;;;;9.07;5.75;;;9.20;99.90;;;;;;5077362;28;20019;-83
2022/03/18 08:05:13;;;;;;;6.57;5.15;;;9.10;99.90;;;;;;5087264;28;20481;-83
2022/03/18 08:07:39;;;;;;;9.38;6.35;;;9.10;99.90;;;;;;5074694;28;20111;-83
2022/03/18 08:10:06;;;;;;;8.15;5.80;;;9.10;99.90;;;;;;5072563;28;20029;-83
2022/03/18 08:12:32;;;;;;;12.35;6.70;;;9.10;99.90;;;;;;5082737;28;20016;-83
2022/03/18 08:14:59;;;;;;;9.57;5.72;;;9.10;99.90;;;;;;5073393;28;20509;-83
2022/03/18 08:17:26;;;;;;;11.48;6.53;;;9.20;99.90;;;;;;5082206;28;20031;-83
2022/03/18 08:19:52;;;;;;;8.13;6.15;;;9.30;99.90;;;;;;5079921;28;20483;-83
2022/03/18 08:22:21;;;;;;;7.47;5.72;;;9.20;99.90;;;;;;5088512;28;20024;-83
2022/03/18 08:24:47;;;;;;;8.77;6.05;;;9.20;99.90;;;;;;5070618;28;20050;-83
2022/03/18 08:27:13;;;;;;;10.07;6.00;;;9.20;99.90;;;;;;5081117;28;20115;-83
2022/03/18 08:29:39;;;;;;;9.55;5.57;;;9.30;99.90;;;;;;5076639;28;20611;-83
2022/03/18 08:32:06;;;;;;;11.98;6.43;;;9.40;99.90;;;;;;5078065;28;20497;-83
2022/03/18 08:34:32;;;;;;;7.82;5.78;;;9.40;99.90;;;;;;5083260;28;20024;-83
2022/03/18 08:36:58;;;;;;;7.50;6.45;;;9.40;99.90;;;;;;5073036;28;20044;-83
2022/03/18 08:39:24;;;;;;;10.02;5.45;;;9.50;99.90;;;;;;5078836;28;20048;-83
2022/03/18 08:41:50;;;;;;;8.20;5.78;;;9.50;99.90;;;;;;5083484;28;20020;-83
2022/03/18 08:44:19;;;;;;;6.65;5.45;;;9.50;99.90;;;;;;5073441;28;20035;-83
2022/03/18 08:46:46;;;;;;;9.00;6.07;;;9.40;99.90;;;;;;5075494;28;20070;-83
2022/03/18 08:49:12;;;;;;;7.53;5.97;;;9.40;99.90;;;;;;5079114;28;20040;-83
2022/03/18 08:51:38;;;;;;;7.97;5.82;;;9.40;99.90;;;;;;5085103;28;20040;-83
2022/03/18 08:54:04;;;;;;;8.38;5.90;;;9.40;99.90;;;;;;5079721;28;20036;-83
2022/03/18 08:56:31;;;;;;;11.25;6.25;;;9.40;99.90;;;;;;5074955;28;20013;-83
2022/03/18 08:58:58;;;;;;;8.05;5.72;;;9.40;99.90;;;;;;5068857;28;20021;-83
2022/03/18 09:01:25;;;;;;;7.53;5.53;;;9.40;99.90;;;;;;5070075;28;20525;-83
2022/03/18 09:03:52;;;;;;;9.40;6.22;;;9.50;99.90;;;;;;5080524;28;20025;-83
2022/03/18 09:06:18;;;;;;;10.00;6.13;;;9.40;99.90;;;;;;5083680;28;20032;-83
2022/03/18 09:08:44;;;;;;;13.77;8.85;;;9.40;99.90;;;;;;5080152;28;20024;-83
2022/03/18 09:11:10;;;;;;;8.88;6.72;;;9.40;99.90;;;;;;5081213;28;20023;-83
2022/03/18 09:13:36;;;;;;;11.55;6.47;;;9.40;99.90;;;;;;5084894;28;20020;-83
2022/03/18 09:16:05;;;;;;;10.50;6.55;;;9.50;99.90;;;;;;5084525;28;20568;-83
2022/03/18 09:18:31;;;;;;;8.70;6.43;;;9.50;99.90;;;;;;5078442;28;20048;-83
2022/03/18 09:20:58;;;;;;;11.07;6.68;;;9.50;99.90;;;;;;5080375;28;20525;-83
2022/03/18 09:23:24;;;;;;;8.80;6.40;;;9.40;99.90;;;;;;5078247;28;20024;-83
2022/03/18 09:25:50;;;;;;;9.30;6.15;;;9.60;99.90;;;;;;5078101;28;20024;-83
2022/03/18 09:28:16;;;;;;;8.95;6.63;;;9.60;99.90;;;;;;5084539;28;20048;-83
2022/03/18 09:30:42;;;;;;;9.27;6.90;;;9.60;99.90;;;;;;5083928;28;20069;-83
2022/03/18 09:33:08;;;;;;;9.05;6.85;;;9.60;99.90;;;;;;5081213;28;20032;-83
2022/03/18 09:35:36;;;;;;;10.93;6.45;;;9.60;99.90;;;;;;5084343;28;20590;-83
2022/03/18 09:38:02;;;;;;;11.13;6.28;;;9.80;99.90;;;;;;5074078;28;20138;-83
2022/03/18 09:40:28;;;;;;;8.63;6.53;;;9.90;99.90;;;;;;5088188;28;20543;-83
2022/03/18 09:43:04;;;;;;;11.00;6.35;;;9.90;99.90;;;;;;5082183;28;20024;-83
2022/03/18 09:45:33;;;;;;;12.02;6.20;;;10.00;99.90;;;;;;5075207;28;20054;-83
2022/03/18 09:48:00;;;;;;;10.38;7.00;;;10.10;99.90;;;;;;5082158;28;20028;-83
2022/03/18 09:50:27;;;;;;;9.73;7.20;;;10.00;99.90;;;;;;5084789;28;20044;-83
2022/03/18 09:52:53;;;;;;;10.98;7.10;;;10.10;99.90;;;;;;5083512;28;20048;-83
2022/03/18 09:55:19;;;;;;;9.90;6.88;;;10.10;99.90;;;;;;5075946;28;20501;-83
2022/03/18 09:57:45;;;;;;;10.30;7.07;;;10.20;99.90;;;;;;5070390;28;20024;-83
2022/03/18 10:00:11;;;;;;;12.02;8.02;;;10.20;99.90;;;;;;5080073;28;20020;-83
2022/03/18 10:02:38;;;;;;;11.45;7.63;;;10.20;99.90;;;;;;5078715;28;20486;-83
2022/03/18 10:05:10;;;;;;;14.13;8.35;;;10.30;99.90;;;;;;5077112;28;20043;-83
2022/03/18 10:07:36;;;;;;;14.60;7.97;;;10.30;99.90;;;;;;5086823;28;20051;-83
2022/03/18 10:10:02;;;;;;;12.65;8.00;;;10.40;99.90;;;;;;5085386;28;20024;-83
2022/03/18 10:12:38;;;;;;;11.80;8.20;;;10.40;99.90;;;;;;5085686;28;20085;-83
2022/03/18 10:15:16;;;;;;;11.95;7.32;;;10.40;99.90;;;;;;5077803;28;20064;-83
2022/03/18 10:17:47;;;;;;;10.23;7.15;;;10.30;99.90;;;;;;5079316;28;20153;-84
2022/03/18 10:20:33;;;;;;;8.70;7.00;;;10.50;99.90;;;;;;5088088;28;20052;-83
2022/03/18 10:23:05;;;;;;;12.05;6.68;;;10.50;99.90;;;;;;5076408;28;20036;-83
2022/03/18 10:25:48;;;;;;;9.85;6.43;;;10.70;99.90;;;;;;5081511;28;20138;-83
2022/03/18 10:28:14;;;;;;;8.70;6.68;;;10.80;99.90;;;;;;5087186;28;20130;-83
2022/03/18 10:30:39;;;;;;;10.57;7.00;;;10.80;99.90;;;;;;5079780;28;20111;-83
2022/03/18 10:33:06;;;;;;;9.48;6.75;;;10.80;99.90;;;;;;5076000;28;20506;-83
2022/03/18 10:38:34;;;;;;;8.38;6.75;;;10.70;99.90;;;;;;5082794;28;20031;-83
2022/03/18 10:41:08;;;;;;;9.23;6.10;;;10.70;99.90;;;;;;5085846;28;20029;-83
2022/03/18 10:43:54;;;;;;;8.75;6.53;;;10.70;99.90;;;;;;5079672;28;20566;-83
2022/03/18 10:46:20;;;;;;;12.60;6.07;;;10.60;99.90;;;;;;5081799;28;20039;-83
2022/03/18 10:49:03;;;;;;;8.35;6.70;;;10.70;99.90;;;;;;5086334;28;20023;-83
2022/03/18 10:51:30;;;;;;;9.40;7.03;;;10.70;99.90;;;;;;5080182;28;20149;-83
2022/03/18 10:53:57;;;;;;;7.60;6.00;;;10.70;99.90;;;;;;5077756;28;20035;-83
2022/03/18 10:56:24;;;;;;;6.78;6.07;;;10.70;99.90;;;;;;5076163;28;20024;-83
2022/03/18 10:58:50;;;;;;;10.27;6.65;;;10.60;99.90;;;;;;5074393;28;20024;-83
2022/03/18 11:01:18;;;;;;;9.00;6.18;;;10.70;99.90;;;;;;5089022;28;20447;-83
2022/03/18 11:03:45;;;;;;;8.60;6.10;;;10.60;99.90;;;;;;5077318;28;20146;-83
2022/03/18 11:06:12;;;;;;;7.65;5.78;;;10.70;99.90;;;;;;5080484;28;20550;-83
2022/03/18 11:08:48;;;;;;;8.88;5.85;;;10.70;99.90;;;;;;5078511;28;20016;-83
2022/03/18 11:11:18;;;;;;;9.60;6.65;;;10.70;99.90;;;;;;5081903;28;20027;-83
2022/03/18 11:13:51;;;;;;;9.27;5.90;;;10.70;99.90;;;;;;5071346;28;20028;-83
2022/03/18 11:16:25;;;;;;;6.80;4.95;;;10.90;99.90;;;;;;5087718;28;20059;-83
2022/03/18 11:18:52;;;;;;;6.38;5.07;;;11.10;99.90;;;;;;5078291;28;20056;-83
2022/03/18 11:21:21;;;;;;;7.85;5.68;;;11.20;99.90;;;;;;5081157;28;20039;-84
2022/03/18 11:23:47;;;;;;;10.32;5.35;;;11.20;99.90;;;;;;5078458;28;20016;-83
2022/03/18 11:26:18;;;;;;;8.13;5.30;;;11.20;99.90;;;;;;5076176;28;20091;-83
2022/03/18 11:28:45;;;;;;;6.47;4.88;;;11.20;99.90;;;;;;5081446;28;20035;-84
2022/03/18 11:31:18;;;;;;;7.72;5.75;;;11.10;99.90;;;;;;5083566;28;20057;-83
2022/03/18 11:34:17;;;;;;;6.88;5.22;;;11.00;99.90;;;;;;5082329;28;20020;-84
2022/03/18 11:37:10;;;;;;;9.63;6.22;;;11.10;99.90;;;;;;5075564;28;20021;-84
2022/03/18 11:39:35;;;;;;;8.70;5.97;;;11.20;99.90;;;;;;5082127;28;20021;-83
2022/03/18 11:42:12;;;;;;;7.97;6.57;;;11.20;99.90;;;;;;5079864;28;20550;-83
2022/03/18 11:44:58;;;;;;;9.63;6.50;;;11.10;99.90;;;;;;5074084;28;20024;-84
2022/03/18 11:47:33;;;;;;;8.45;5.95;;;11.30;99.90;;;;;;5075107;28;20020;-83
2022/03/18 11:50:00;;;;;;;10.48;6.00;;;11.50;99.90;;;;;;5073416;28;20029;-84
2022/03/18 11:52:26;;;;;;;10.05;5.97;;;11.70;99.90;;;;;;5083823;28;20056;-84
2022/03/18 11:54:58;;;;;;;8.95;5.95;;;11.70;99.90;;;;;;5075267;28;20036;-84
2022/03/18 11:57:34;;;;;;;7.68;6.00;;;11.70;99.90;;;;;;5077267;28;20037;-84
2022/03/18 12:00:03;;;;;;;8.80;5.93;;;11.70;99.90;;;;;;5079762;28;20105;-84
2022/03/18 12:02:33;;;;;;;10.73;6.45;;;11.70;99.90;;;;;;5070094;28;20025;-84
2022/03/18 12:04:59;;;;;;;9.27;6.55;;;11.50;99.90;;;;;;5076474;28;20020;-84
2022/03/18 12:07:36;;;;;;;9.80;6.20;;;11.80;99.90;;;;;;5077709;28;20056;-83
2022/03/18 12:10:09;;;;;;;7.53;6.00;;;11.90;99.90;;;;;;5081903;28;20035;-84
2022/03/18 12:12:40;;;;;;;9.98;6.55;;;11.90;99.90;;;;;;5075219;28;20031;-84
2022/03/18 12:15:11;;;;;;;7.53;6.72;;;11.90;99.90;;;;;;5077140;28;20088;-84
2022/03/18 12:17:43;;;;;;;;;;;11.80;99.90;;;;;;5075676;28;20024;-83
2022/03/18 12:20:10;;;;;;;;;;;11.80;99.90;;;;;;5084126;28;19915;-84
2022/03/18 12:22:40;;;;;;;7.20;5.68;;;11.80;99.90;;;;;;5075324;28;19905;-84
2022/03/18 12:25:08;;;;;;;8.87;5.77;;;12.10;99.90;;;;;;5082804;28;20032;-84
2022/03/18 12:27:36;;;;;;;8.52;5.65;;;12.00;99.90;;;;;;5082667;28;20345;-84
2022/03/18 12:30:08;;;;;;;11.82;6.93;;;11.90;99.90;;;;;;5073311;28;20029;-84
2022/03/18 12:32:38;;;;;;;10.63;8.18;;;12.00;99.90;;;;;;5076232;28;20201;-84
2022/03/18 12:35:04;;;;;;;28.58;18.15;;;11.90;99.90;;;;;;5076588;28;20036;-84
2022/03/18 12:37:31;;;;;;;28.70;16.92;;;12.00;99.90;;;;;;5080901;28;20012;-84
2022/03/18 12:40:05;;;;;;;26.48;16.80;;;12.00;99.90;;;;;;5091631;28;20024;-84
2022/03/18 12:42:31;;;;;;;20.48;13.68;;;12.30;99.90;;;;;;5085806;28;20020;-83
2022/03/18 12:45:00;;;;;;;23.02;14.23;;;12.30;99.90;;;;;;5073475;28;20029;-83
2022/03/18 12:47:30;;;;;;;17.63;12.10;;;12.30;99.90;;;;;;5081582;28;20069;-84
2022/03/18 12:49:58;;;;;;;17.73;11.03;;;12.20;99.90;;;;;;5081491;28;20028;-84
2022/03/18 12:52:24;;;;;;;14.73;10.05;;;12.20;99.90;;;;;;5078062;28;20056;-84
2022/03/18 12:55:08;;;;;;;14.57;8.88;;;12.20;99.90;;;;;;5079291;28;20520;-83
2022/03/18 12:57:37;;;;;;;23.83;13.52;;;12.30;99.90;;;;;;5073690;28;20020;-84
2022/03/18 13:00:11;;;;;;;30.92;18.48;;;12.20;99.90;;;;;;5083762;28;20032;-84
2022/03/18 13:02:37;;;;;;;34.88;19.00;;;12.10;99.90;;;;;;5072887;28;20013;-84
2022/03/18 13:05:07;;;;;;;25.92;14.95;;;12.20;99.90;;;;;;5079544;28;20509;-84
2022/03/18 13:07:33;;;;;;;19.73;12.50;;;12.00;99.90;;;;;;5084030;28;20085;-84
2022/03/18 13:09:59;;;;;;;18.85;11.07;;;12.10;99.90;;;;;;5085016;28;20028;-84